sensor_id;sensor_type;location;lat;lon;timestamp;pressure;altitude;pressure_sealevel;temperature;humidity
11349;BME280;5729;43.570;27.826;2023-07-31T00:02:19;98454.31;;;22.30;100.00
11349;BME280;5729;43.570;27.826;2023-07-31T00:04:44;98443.19;;;22.33;100.00
11349;BME280;5729;43.570;27.826;2023-07-31T00:07:09;98448.06;;;22.29;100.00
11349;BME280;5729;43.570;27.826;2023-07-31T00:09:35;98451.38;;;22.24;100.00
11349;BME280;5729;43.570;27.826;2023-07-31T00:12:00;98451.19;;;22.19;100.00
11349;BME280;5729;43.570;27.826;2023-07-31T00:14:26;98454.22;;;22.12;100.00
11349;BME280;5729;43.570;27.826;2023-07-31T00:16:51;98455.00;;;22.12;100.00
11349;BME280;5729;43.570;27.826;2023-07-31T00:19:18;98457.72;;;22.12;100.00
11349;BME280;5729;43.570;27.826;2023-07-31T00:21:44;98452.09;;;22.16;100.00
11349;BME280;5729;43.570;27.826;2023-07-31T00:24:10;98460.78;;;22.14;100.00
11349;BME280;5729;43.570;27.826;2023-07-31T00:26:35;98460.53;;;22.21;100.00
11349;BME280;5729;43.570;27.826;2023-07-31T00:29:01;98455.34;;;22.23;100.00
11349;BME280;5729;43.570;27.826;2023-07-31T00:31:26;98462.34;;;22.24;100.00
11349;BME280;5729;43.570;27.826;2023-07-31T00:33:52;98464.97;;;22.28;100.00
11349;BME280;5729;43.570;27.826;2023-07-31T00:36:17;98465.28;;;22.30;100.00
11349;BME280;5729;43.570;27.826;2023-07-31T00:38:43;98465.09;;;22.24;100.00
11349;BME280;5729;43.570;27.826;2023-07-31T00:41:09;98470.53;;;22.15;100.00
11349;BME280;5729;43.570;27.826;2023-07-31T00:43:34;98470.81;;;22.08;100.00
11349;BME280;5729;43.570;27.826;2023-07-31T00:45:59;98475.84;;;22.09;100.00
11349;BME280;5729;43.570;27.826;2023-07-31T00:48:25;98475.97;;;22.06;100.00
11349;BME280;5729;43.570;27.826;2023-07-31T00:50:51;98473.69;;;22.04;100.00
11349;BME280;5729;43.570;27.826;2023-07-31T00:53:16;98463.59;;;22.01;100.00
11349;BME280;5729;43.570;27.826;2023-07-31T00:55:42;98473.50;;;21.99;100.00
11349;BME280;5729;43.570;27.826;2023-07-31T00:58:08;98469.75;;;21.93;100.00
11349;BME280;5729;43.570;27.826;2023-07-31T01:00:34;98473.28;;;21.93;100.00
11349;BME280;5729;43.570;27.826;2023-07-31T01:02:59;98468.03;;;21.86;100.00
11349;BME280;5729;43.570;27.826;2023-07-31T01:08:23;98461.78;;;21.86;100.00
11349;BME280;5729;43.570;27.826;2023-07-31T01:10:56;98466.69;;;21.91;100.00
11349;BME280;5729;43.570;27.826;2023-07-31T01:13:25;98464.88;;;21.88;100.00
11349;BME280;5729;43.570;27.826;2023-07-31T01:15:51;98468.75;;;21.78;100.00
11349;BME280;5729;43.570;27.826;2023-07-31T01:18:17;98466.91;;;21.74;100.00
11349;BME280;5729;43.570;27.826;2023-07-31T01:20:45;98465.47;;;21.70;100.00
11349;BME280;5729;43.570;27.826;2023-07-31T01:31:24;98479.69;;;21.56;100.00
11349;BME280;5729;43.570;27.826;2023-07-31T01:33:51;98484.88;;;21.54;100.00
11349;BME280;5729;43.570;27.826;2023-07-31T01:36:19;98504.28;;;21.47;100.00
11349;BME280;5729;43.570;27.826;2023-07-31T01:38:44;98514.91;;;21.45;100.00
11349;BME280;5729;43.570;27.826;2023-07-31T01:41:10;98520.22;;;21.39;100.00
11349;BME280;5729;43.570;27.826;2023-07-31T01:43:35;98513.97;;;21.38;100.00
11349;BME280;5729;43.570;27.826;2023-07-31T01:46:00;98496.09;;;21.34;100.00
11349;BME280;5729;43.570;27.826;2023-07-31T01:48:26;98493.47;;;21.30;100.00
11349;BME280;5729;43.570;27.826;2023-07-31T01:50:51;98496.56;;;21.32;100.00
11349;BME280;5729;43.570;27.826;2023-07-31T01:53:17;98511.25;;;21.26;100.00
11349;BME280;5729;43.570;27.826;2023-07-31T01:55:43;98511.47;;;21.06;100.00
11349;BME280;5729;43.570;27.826;2023-07-31T01:58:09;98511.25;;;21.00;100.00
11349;BME280;5729;43.570;27.826;2023-07-31T02:00:35;98511.47;;;20.93;100.00
11349;BME280;5729;43.570;27.826;2023-07-31T02:03:00;98508.97;;;20.86;100.00
11349;BME280;5729;43.570;27.826;2023-07-31T02:05:25;98520.78;;;20.83;100.00
11349;BME280;5729;43.570;27.826;2023-07-31T02:07:51;98512.47;;;20.87;100.00
11349;BME280;5729;43.570;27.826;2023-07-31T02:10:16;98513.44;;;20.93;100.00
11349;BME280;5729;43.570;27.826;2023-07-31T02:12:42;98507.63;;;21.03;100.00
11349;BME280;5729;43.570;27.826;2023-07-31T02:15:07;98505.75;;;21.13;100.00
11349;BME280;5729;43.570;27.826;2023-07-31T02:17:33;98499.75;;;21.18;100.00
11349;BME280;5729;43.570;27.826;2023-07-31T02:19:58;98509.06;;;21.21;100.00
11349;BME280;5729;43.570;27.826;2023-07-31T02:22:24;98503.78;;;21.26;100.00
11349;BME280;5729;43.570;27.826;2023-07-31T02:24:49;98492.50;;;21.24;100.00
11349;BME280;5729;43.570;27.826;2023-07-31T02:27:15;98486.81;;;21.19;100.00
11349;BME280;5729;43.570;27.826;2023-07-31T02:29:40;98496.78;;;21.25;100.00
11349;BME280;5729;43.570;27.826;2023-07-31T02:32:06;98492.94;;;21.23;100.00
11349;BME280;5729;43.570;27.826;2023-07-31T02:34:31;98508.81;;;21.28;100.00
11349;BME280;5729;43.570;27.826;2023-07-31T02:36:56;98505.75;;;21.26;100.00
11349;BME280;5729;43.570;27.826;2023-07-31T02:39:22;98508.16;;;21.24;100.00
11349;BME280;5729;43.570;27.826;2023-07-31T02:41:47;98506.94;;;21.12;100.00
11349;BME280;5729;43.570;27.826;2023-07-31T02:44:13;98512.34;;;21.03;100.00
11349;BME280;5729;43.570;27.826;2023-07-31T02:46:40;98505.47;;;20.98;100.00
11349;BME280;5729;43.570;27.826;2023-07-31T02:49:05;98513.97;;;21.00;100.00
11349;BME280;5729;43.570;27.826;2023-07-31T02:51:31;98513.88;;;21.04;100.00
11349;BME280;5729;43.570;27.826;2023-07-31T02:53:56;98515.06;;;21.03;100.00
11349;BME280;5729;43.570;27.826;2023-07-31T02:56:22;98517.47;;;21.01;100.00
11349;BME280;5729;43.570;27.826;2023-07-31T02:58:47;98527.91;;;21.06;100.00
11349;BME280;5729;43.570;27.826;2023-07-31T03:01:12;98524.63;;;20.98;100.00
11349;BME280;5729;43.570;27.826;2023-07-31T03:03:38;98528.13;;;20.99;100.00
11349;BME280;5729;43.570;27.826;2023-07-31T03:06:03;98527.56;;;21.04;100.00
11349;BME280;5729;43.570;27.826;2023-07-31T03:08:29;98522.19;;;21.00;100.00
11349;BME280;5729;43.570;27.826;2023-07-31T03:10:54;98532.19;;;21.07;100.00
11349;BME280;5729;43.570;27.826;2023-07-31T03:13:21;98529.53;;;21.03;100.00
11349;BME280;5729;43.570;27.826;2023-07-31T03:15:47;98530.66;;;21.06;100.00
11349;BME280;5729;43.570;27.826;2023-07-31T03:18:12;98529.44;;;21.07;100.00
11349;BME280;5729;43.570;27.826;2023-07-31T03:20:42;98527.47;;;21.08;100.00
11349;BME280;5729;43.570;27.826;2023-07-31T03:23:07;98517.72;;;21.07;100.00
11349;BME280;5729;43.570;27.826;2023-07-31T03:25:33;98518.94;;;21.18;100.00
11349;BME280;5729;43.570;27.826;2023-07-31T03:27:58;98519.34;;;21.29;100.00
11349;BME280;5729;43.570;27.826;2023-07-31T03:30:24;98514.84;;;21.35;100.00
11349;BME280;5729;43.570;27.826;2023-07-31T03:32:49;98516.69;;;21.38;100.00
11349;BME280;5729;43.570;27.826;2023-07-31T03:35:15;98513.53;;;21.40;100.00
11349;BME280;5729;43.570;27.826;2023-07-31T03:37:40;98517.34;;;21.43;100.00
11349;BME280;5729;43.570;27.826;2023-07-31T03:40:06;98512.50;;;21.47;100.00
11349;BME280;5729;43.570;27.826;2023-07-31T03:42:32;98511.50;;;21.53;100.00
11349;BME280;5729;43.570;27.826;2023-07-31T03:44:57;98516.41;;;21.58;100.00
11349;BME280;5729;43.570;27.826;2023-07-31T03:47:22;98514.88;;;21.57;100.00
11349;BME280;5729;43.570;27.826;2023-07-31T03:49:48;98513.13;;;21.63;100.00
11349;BME280;5729;43.570;27.826;2023-07-31T03:52:13;98504.78;;;21.67;100.00
11349;BME280;5729;43.570;27.826;2023-07-31T03:54:39;98509.25;;;21.73;100.00
11349;BME280;5729;43.570;27.826;2023-07-31T03:57:04;98513.25;;;21.82;100.00
11349;BME280;5729;43.570;27.826;2023-07-31T03:59:30;98507.84;;;21.91;100.00
11349;BME280;5729;43.570;27.826;2023-07-31T04:01:55;98522.75;;;22.02;100.00
11349;BME280;5729;43.570;27.826;2023-07-31T04:04:21;98520.53;;;22.10;100.00
11349;BME280;5729;43.570;27.826;2023-07-31T04:06:46;98521.59;;;22.13;100.00
11349;BME280;5729;43.570;27.826;2023-07-31T04:09:12;98521.97;;;22.24;100.00
11349;BME280;5729;43.570;27.826;2023-07-31T04:11:37;98520.50;;;22.32;100.00
11349;BME280;5729;43.570;27.826;2023-07-31T04:14:04;98525.84;;;22.35;100.00
11349;BME280;5729;43.570;27.826;2023-07-31T04:16:29;98525.72;;;22.39;100.00
11349;BME280;5729;43.570;27.826;2023-07-31T04:18:55;98521.97;;;22.45;100.00
11349;BME280;5729;43.570;27.826;2023-07-31T04:21:20;98519.72;;;22.53;100.00
11349;BME280;5729;43.570;27.826;2023-07-31T04:23:46;98514.72;;;22.61;100.00
11349;BME280;5729;43.570;27.826;2023-07-31T04:26:11;98518.69;;;22.69;100.00
11349;BME280;5729;43.570;27.826;2023-07-31T04:28:37;98523.84;;;22.79;100.00
11349;BME280;5729;43.570;27.826;2023-07-31T04:31:03;98524.00;;;22.85;100.00
11349;BME280;5729;43.570;27.826;2023-07-31T04:33:28;98522.06;;;22.95;100.00
11349;BME280;5729;43.570;27.826;2023-07-31T04:35:54;98513.41;;;23.14;100.00
11349;BME280;5729;43.570;27.826;2023-07-31T04:38:20;98516.31;;;23.20;100.00
11349;BME280;5729;43.570;27.826;2023-07-31T04:40:46;98524.31;;;23.36;100.00
11349;BME280;5729;43.570;27.826;2023-07-31T04:43:12;98532.72;;;23.42;100.00
11349;BME280;5729;43.570;27.826;2023-07-31T04:45:37;98526.31;;;23.45;100.00
11349;BME280;5729;43.570;27.826;2023-07-31T04:48:03;98525.13;;;23.55;100.00
11349;BME280;5729;43.570;27.826;2023-07-31T04:50:28;98536.13;;;23.55;100.00
11349;BME280;5729;43.570;27.826;2023-07-31T04:52:55;98532.28;;;23.52;100.00
11349;BME280;5729;43.570;27.826;2023-07-31T04:55:20;98533.19;;;23.49;100.00
11349;BME280;5729;43.570;27.826;2023-07-31T04:57:46;98537.91;;;23.49;100.00
11349;BME280;5729;43.570;27.826;2023-07-31T05:00:11;98527.97;;;23.42;100.00
11349;BME280;5729;43.570;27.826;2023-07-31T05:02:37;98537.13;;;23.39;100.00
11349;BME280;5729;43.570;27.826;2023-07-31T05:05:02;98538.81;;;23.37;100.00
11349;BME280;5729;43.570;27.826;2023-07-31T05:07:28;98538.97;;;23.33;100.00
11349;BME280;5729;43.570;27.826;2023-07-31T05:09:53;98535.13;;;23.31;100.00
11349;BME280;5729;43.570;27.826;2023-07-31T05:12:19;98538.34;;;23.29;100.00
11349;BME280;5729;43.570;27.826;2023-07-31T05:14:44;98537.13;;;23.30;100.00
11349;BME280;5729;43.570;27.826;2023-07-31T05:17:09;98536.66;;;23.23;100.00
11349;BME280;5729;43.570;27.826;2023-07-31T05:19:35;98535.13;;;23.31;100.00
11349;BME280;5729;43.570;27.826;2023-07-31T05:22:00;98541.09;;;23.38;100.00
11349;BME280;5729;43.570;27.826;2023-07-31T05:24:26;98547.22;;;23.42;100.00
11349;BME280;5729;43.570;27.826;2023-07-31T05:26:51;98542.34;;;23.46;100.00
11349;BME280;5729;43.570;27.826;2023-07-31T05:29:16;98545.28;;;23.52;100.00
11349;BME280;5729;43.570;27.826;2023-07-31T05:31:42;98544.69;;;23.57;100.00
11349;BME280;5729;43.570;27.826;2023-07-31T05:34:07;98550.03;;;23.61;100.00
11349;BME280;5729;43.570;27.826;2023-07-31T05:36:33;98552.63;;;23.64;100.00
11349;BME280;5729;43.570;27.826;2023-07-31T05:38:58;98543.31;;;23.71;100.00
11349;BME280;5729;43.570;27.826;2023-07-31T05:41:24;98549.88;;;23.82;100.00
11349;BME280;5729;43.570;27.826;2023-07-31T05:43:49;98554.78;;;23.97;100.00
11349;BME280;5729;43.570;27.826;2023-07-31T05:46:14;98545.78;;;24.14;100.00
11349;BME280;5729;43.570;27.826;2023-07-31T05:48:40;98553.41;;;24.29;100.00
11349;BME280;5729;43.570;27.826;2023-07-31T05:51:05;98559.38;;;24.45;100.00
11349;BME280;5729;43.570;27.826;2023-07-31T05:53:32;98564.22;;;24.59;100.00
11349;BME280;5729;43.570;27.826;2023-07-31T05:55:57;98566.22;;;24.59;100.00
11349;BME280;5729;43.570;27.826;2023-07-31T05:58:23;98570.94;;;24.68;100.00
11349;BME280;5729;43.570;27.826;2023-07-31T06:00:48;98557.28;;;24.73;100.00
11349;BME280;5729;43.570;27.826;2023-07-31T06:03:14;98562.03;;;24.73;100.00
11349;BME280;5729;43.570;27.826;2023-07-31T06:05:39;98564.47;;;24.80;100.00
11349;BME280;5729;43.570;27.826;2023-07-31T06:08:05;98571.22;;;24.79;100.00
11349;BME280;5729;43.570;27.826;2023-07-31T06:10:30;98569.81;;;24.83;100.00
11349;BME280;5729;43.570;27.826;2023-07-31T06:12:56;98574.88;;;24.94;100.00
11349;BME280;5729;43.570;27.826;2023-07-31T06:15:22;98576.81;;;25.03;100.00
11349;BME280;5729;43.570;27.826;2023-07-31T06:17:48;98579.19;;;25.19;100.00
11349;BME280;5729;43.570;27.826;2023-07-31T06:20:13;98580.41;;;25.27;100.00
11349;BME280;5729;43.570;27.826;2023-07-31T06:22:38;98577.38;;;25.40;100.00
11349;BME280;5729;43.570;27.826;2023-07-31T06:25:04;98568.88;;;25.52;100.00
11349;BME280;5729;43.570;27.826;2023-07-31T06:27:30;98589.75;;;25.77;100.00
11349;BME280;5729;43.570;27.826;2023-07-31T06:29:56;98576.59;;;25.96;100.00
11349;BME280;5729;43.570;27.826;2023-07-31T06:32:21;98591.94;;;26.12;100.00
11349;BME280;5729;43.570;27.826;2023-07-31T06:34:47;98597.72;;;25.99;100.00
11349;BME280;5729;43.570;27.826;2023-07-31T06:37:12;98598.41;;;26.09;100.00
11349;BME280;5729;43.570;27.826;2023-07-31T06:39:38;98600.53;;;26.14;100.00
11349;BME280;5729;43.570;27.826;2023-07-31T06:42:03;98593.41;;;26.22;100.00
11349;BME280;5729;43.570;27.826;2023-07-31T06:44:29;98594.50;;;26.39;100.00
11349;BME280;5729;43.570;27.826;2023-07-31T06:46:54;98593.38;;;26.60;100.00
11349;BME280;5729;43.570;27.826;2023-07-31T06:49:20;98594.22;;;26.66;100.00
11349;BME280;5729;43.570;27.826;2023-07-31T06:51:45;98598.22;;;26.65;100.00
11349;BME280;5729;43.570;27.826;2023-07-31T06:54:11;98594.88;;;26.91;100.00
11349;BME280;5729;43.570;27.826;2023-07-31T06:56:36;98602.44;;;27.05;100.00
11349;BME280;5729;43.570;27.826;2023-07-31T06:59:02;98586.06;;;27.22;100.00
11349;BME280;5729;43.570;27.826;2023-07-31T07:01:28;98585.44;;;27.12;100.00
11349;BME280;5729;43.570;27.826;2023-07-31T07:03:53;98592.53;;;27.33;100.00
11349;BME280;5729;43.570;27.826;2023-07-31T07:06:19;98580.66;;;27.47;100.00
11349;BME280;5729;43.570;27.826;2023-07-31T07:08:45;98583.31;;;27.77;100.00
11349;BME280;5729;43.570;27.826;2023-07-31T07:11:10;98585.97;;;27.86;100.00
11349;BME280;5729;43.570;27.826;2023-07-31T07:13:35;98592.16;;;28.01;100.00
11349;BME280;5729;43.570;27.826;2023-07-31T07:16:01;98590.00;;;28.11;100.00
11349;BME280;5729;43.570;27.826;2023-07-31T07:18:26;98590.22;;;28.28;100.00
11349;BME280;5729;43.570;27.826;2023-07-31T07:20:53;98587.78;;;28.35;100.00
11349;BME280;5729;43.570;27.826;2023-07-31T07:23:19;98594.69;;;28.20;100.00
11349;BME280;5729;43.570;27.826;2023-07-31T07:25:46;98585.78;;;28.15;100.00
11349;BME280;5729;43.570;27.826;2023-07-31T07:28:12;98598.66;;;28.39;100.00
11349;BME280;5729;43.570;27.826;2023-07-31T07:30:38;98588.75;;;28.12;100.00
11349;BME280;5729;43.570;27.826;2023-07-31T07:33:03;98599.75;;;28.21;100.00
11349;BME280;5729;43.570;27.826;2023-07-31T07:35:29;98586.25;;;28.34;100.00
11349;BME280;5729;43.570;27.826;2023-07-31T07:37:54;98587.88;;;28.46;100.00
11349;BME280;5729;43.570;27.826;2023-07-31T07:40:20;98585.19;;;28.52;100.00
11349;BME280;5729;43.570;27.826;2023-07-31T07:42:46;98597.41;;;28.40;100.00
11349;BME280;5729;43.570;27.826;2023-07-31T07:45:12;98587.25;;;28.11;100.00
11349;BME280;5729;43.570;27.826;2023-07-31T07:47:40;98583.78;;;28.16;100.00
11349;BME280;5729;43.570;27.826;2023-07-31T07:50:06;98596.53;;;28.28;100.00
11349;BME280;5729;43.570;27.826;2023-07-31T07:52:31;98584.63;;;28.48;100.00
11349;BME280;5729;43.570;27.826;2023-07-31T07:54:57;98588.72;;;28.78;100.00
11349;BME280;5729;43.570;27.826;2023-07-31T07:57:22;98585.88;;;28.73;100.00
11349;BME280;5729;43.570;27.826;2023-07-31T07:59:48;98593.09;;;28.90;100.00
11349;BME280;5729;43.570;27.826;2023-07-31T08:02:13;98605.88;;;29.45;100.00
11349;BME280;5729;43.570;27.826;2023-07-31T08:04:38;98597.63;;;29.62;100.00
11349;BME280;5729;43.570;27.826;2023-07-31T08:07:04;98604.56;;;29.89;100.00
11349;BME280;5729;43.570;27.826;2023-07-31T08:09:29;98608.97;;;30.18;100.00
11349;BME280;5729;43.570;27.826;2023-07-31T08:11:55;98605.94;;;30.16;100.00
11349;BME280;5729;43.570;27.826;2023-07-31T08:14:23;98607.69;;;30.08;100.00
11349;BME280;5729;43.570;27.826;2023-07-31T08:16:48;98613.91;;;29.91;100.00
11349;BME280;5729;43.570;27.826;2023-07-31T08:19:13;98623.06;;;30.03;100.00
11349;BME280;5729;43.570;27.826;2023-07-31T08:21:39;98615.44;;;31.02;100.00
11349;BME280;5729;43.570;27.826;2023-07-31T08:24:04;98620.47;;;31.48;100.00
11349;BME280;5729;43.570;27.826;2023-07-31T08:26:30;98633.66;;;31.48;99.21
11349;BME280;5729;43.570;27.826;2023-07-31T08:28:55;98624.03;;;30.98;98.58
11349;BME280;5729;43.570;27.826;2023-07-31T08:31:21;98629.34;;;30.85;100.00
11349;BME280;5729;43.570;27.826;2023-07-31T08:33:46;98637.34;;;30.33;100.00
11349;BME280;5729;43.570;27.826;2023-07-31T08:36:12;98622.94;;;29.81;100.00
11349;BME280;5729;43.570;27.826;2023-07-31T08:38:37;98629.41;;;29.55;100.00
11349;BME280;5729;43.570;27.826;2023-07-31T08:41:03;98630.66;;;29.54;100.00
11349;BME280;5729;43.570;27.826;2023-07-31T08:43:30;98633.03;;;29.36;100.00
11349;BME280;5729;43.570;27.826;2023-07-31T08:45:56;98637.81;;;29.35;100.00
11349;BME280;5729;43.570;27.826;2023-07-31T08:48:23;98640.28;;;29.22;100.00
11349;BME280;5729;43.570;27.826;2023-07-31T08:50:49;98638.00;;;28.89;100.00
11349;BME280;5729;43.570;27.826;2023-07-31T08:53:15;98639.66;;;28.81;100.00
11349;BME280;5729;43.570;27.826;2023-07-31T08:55:42;98637.25;;;28.68;100.00
11349;BME280;5729;43.570;27.826;2023-07-31T08:58:08;98639.59;;;28.75;100.00
11349;BME280;5729;43.570;27.826;2023-07-31T09:00:35;98648.78;;;28.61;100.00
11349;BME280;5729;43.570;27.826;2023-07-31T09:03:27;98643.88;;;28.50;100.00
11349;BME280;5729;43.570;27.826;2023-07-31T09:05:56;98652.28;;;28.36;100.00
11349;BME280;5729;43.570;27.826;2023-07-31T09:08:21;98660.31;;;28.13;100.00
11349;BME280;5729;43.570;27.826;2023-07-31T09:10:48;98652.34;;;28.01;100.00
11349;BME280;5729;43.570;27.826;2023-07-31T09:13:17;98654.91;;;27.49;100.00
11349;BME280;5729;43.570;27.826;2023-07-31T09:15:44;98664.13;;;27.26;100.00
11349;BME280;5729;43.570;27.826;2023-07-31T09:18:10;98657.16;;;27.01;100.00
11349;BME280;5729;43.570;27.826;2023-07-31T09:20:36;98661.25;;;26.91;100.00
11349;BME280;5729;43.570;27.826;2023-07-31T09:23:11;98654.47;;;26.62;100.00
11349;BME280;5729;43.570;27.826;2023-07-31T09:25:37;98673.41;;;26.40;100.00
11349;BME280;5729;43.570;27.826;2023-07-31T09:28:07;98677.03;;;26.22;100.00
11349;BME280;5729;43.570;27.826;2023-07-31T09:30:51;98678.47;;;26.18;100.00
11349;BME280;5729;43.570;27.826;2023-07-31T09:33:18;98677.19;;;26.19;100.00
11349;BME280;5729;43.570;27.826;2023-07-31T09:35:44;98682.03;;;26.09;100.00
11349;BME280;5729;43.570;27.826;2023-07-31T09:38:13;98688.44;;;25.91;100.00
11349;BME280;5729;43.570;27.826;2023-07-31T09:40:42;98684.16;;;25.90;100.00
11349;BME280;5729;43.570;27.826;2023-07-31T09:43:09;98686.50;;;25.83;100.00
11349;BME280;5729;43.570;27.826;2023-07-31T09:45:37;98690.50;;;25.82;100.00
11349;BME280;5729;43.570;27.826;2023-07-31T09:48:03;98683.75;;;25.83;100.00
11349;BME280;5729;43.570;27.826;2023-07-31T09:50:31;98687.75;;;25.82;100.00
11349;BME280;5729;43.570;27.826;2023-07-31T09:52:57;98688.28;;;25.95;100.00
11349;BME280;5729;43.570;27.826;2023-07-31T09:55:23;98694.56;;;25.95;100.00
11349;BME280;5729;43.570;27.826;2023-07-31T09:57:49;98682.88;;;26.00;100.00
11349;BME280;5729;43.570;27.826;2023-07-31T10:00:16;98685.16;;;26.02;100.00
11349;BME280;5729;43.570;27.826;2023-07-31T10:02:45;98673.34;;;26.01;100.00
11349;BME280;5729;43.570;27.826;2023-07-31T10:05:15;98683.47;;;26.04;100.00
11349;BME280;5729;43.570;27.826;2023-07-31T10:07:51;98683.16;;;26.02;100.00
11349;BME280;5729;43.570;27.826;2023-07-31T10:10:17;98681.25;;;26.09;100.00
11349;BME280;5729;43.570;27.826;2023-07-31T10:12:46;98685.78;;;26.21;100.00
11349;BME280;5729;43.570;27.826;2023-07-31T10:15:14;98685.31;;;26.22;100.00
11349;BME280;5729;43.570;27.826;2023-07-31T10:17:40;98683.75;;;26.07;100.00
11349;BME280;5729;43.570;27.826;2023-07-31T10:20:06;98677.75;;;26.08;100.00
11349;BME280;5729;43.570;27.826;2023-07-31T10:22:32;98678.63;;;26.14;100.00
11349;BME280;5729;43.570;27.826;2023-07-31T10:24:59;98688.94;;;26.37;100.00
11349;BME280;5729;43.570;27.826;2023-07-31T10:27:25;98680.25;;;26.45;100.00
11349;BME280;5729;43.570;27.826;2023-07-31T10:29:55;98683.78;;;26.45;100.00
11349;BME280;5729;43.570;27.826;2023-07-31T10:32:22;98692.44;;;26.38;100.00
11349;BME280;5729;43.570;27.826;2023-07-31T10:34:49;98682.88;;;26.63;100.00
11349;BME280;5729;43.570;27.826;2023-07-31T10:37:25;98681.09;;;26.74;100.00
11349;BME280;5729;43.570;27.826;2023-07-31T10:42:36;98680.31;;;26.74;100.00
11349;BME280;5729;43.570;27.826;2023-07-31T10:45:08;98660.38;;;26.70;100.00
11349;BME280;5729;43.570;27.826;2023-07-31T10:47:44;98668.69;;;26.85;100.00
11349;BME280;5729;43.570;27.826;2023-07-31T10:50:18;98672.63;;;26.93;100.00
11349;BME280;5729;43.570;27.826;2023-07-31T10:52:49;98675.06;;;26.76;100.00
11349;BME280;5729;43.570;27.826;2023-07-31T10:55:25;98672.69;;;26.84;100.00
11349;BME280;5729;43.570;27.826;2023-07-31T10:57:52;98654.75;;;26.79;100.00
11349;BME280;5729;43.570;27.826;2023-07-31T11:00:29;98666.69;;;26.85;100.00
11349;BME280;5729;43.570;27.826;2023-07-31T11:03:07;98660.09;;;26.68;100.00
11349;BME280;5729;43.570;27.826;2023-07-31T11:05:51;98666.78;;;26.61;100.00
11349;BME280;5729;43.570;27.826;2023-07-31T11:08:25;98658.28;;;26.65;100.00
11349;BME280;5729;43.570;27.826;2023-07-31T11:11:05;98646.84;;;26.57;100.00
11349;BME280;5729;43.570;27.826;2023-07-31T11:13:33;98658.28;;;26.65;100.00
11349;BME280;5729;43.570;27.826;2023-07-31T11:16:00;98656.84;;;26.69;100.00
11349;BME280;5729;43.570;27.826;2023-07-31T11:18:26;98654.69;;;26.73;100.00
11349;BME280;5729;43.570;27.826;2023-07-31T11:20:53;98655.91;;;26.72;100.00
11349;BME280;5729;43.570;27.826;2023-07-31T11:23:19;98651.41;;;26.90;100.00
11349;BME280;5729;43.570;27.826;2023-07-31T11:25:45;98631.00;;;26.87;100.00
11349;BME280;5729;43.570;27.826;2023-07-31T11:28:13;98642.75;;;26.82;100.00
11349;BME280;5729;43.570;27.826;2023-07-31T11:30:40;98645.91;;;26.90;100.00
11349;BME280;5729;43.570;27.826;2023-07-31T11:33:10;98638.34;;;26.75;100.00
11349;BME280;5729;43.570;27.826;2023-07-31T11:35:44;98636.94;;;26.80;100.00
11349;BME280;5729;43.570;27.826;2023-07-31T11:40:52;98631.00;;;26.43;100.00
11349;BME280;5729;43.570;27.826;2023-07-31T11:43:19;98621.69;;;26.17;100.00
11349;BME280;5729;43.570;27.826;2023-07-31T11:45:47;98623.09;;;26.36;100.00
11349;BME280;5729;43.570;27.826;2023-07-31T11:50:52;98616.41;;;26.28;100.00
11349;BME280;5729;43.570;27.826;2023-07-31T11:53:45;98613.97;;;26.21;100.00
11349;BME280;5729;43.570;27.826;2023-07-31T11:56:20;98630.53;;;26.06;100.00
11349;BME280;5729;43.570;27.826;2023-07-31T11:58:48;98622.41;;;26.02;100.00
11349;BME280;5729;43.570;27.826;2023-07-31T12:01:15;98623.34;;;25.99;100.00
11349;BME280;5729;43.570;27.826;2023-07-31T12:03:43;98623.13;;;25.88;100.00
11349;BME280;5729;43.570;27.826;2023-07-31T12:06:09;98629.94;;;25.78;100.00
11349;BME280;5729;43.570;27.826;2023-07-31T12:08:34;98628.34;;;25.53;100.00
11349;BME280;5729;43.570;27.826;2023-07-31T12:11:06;98629.09;;;25.63;100.00
11349;BME280;5729;43.570;27.826;2023-07-31T12:13:33;98626.06;;;25.61;100.00
11349;BME280;5729;43.570;27.826;2023-07-31T12:16:00;98631.59;;;25.52;100.00
11349;BME280;5729;43.570;27.826;2023-07-31T12:18:29;98630.09;;;25.42;100.00
11349;BME280;5729;43.570;27.826;2023-07-31T12:20:59;98628.63;;;25.31;100.00
11349;BME280;5729;43.570;27.826;2023-07-31T12:23:27;98623.72;;;25.36;100.00
11349;BME280;5729;43.570;27.826;2023-07-31T12:31:03;98604.56;;;25.32;100.00
11349;BME280;5729;43.570;27.826;2023-07-31T12:33:34;98605.63;;;25.35;100.00
11349;BME280;5729;43.570;27.826;2023-07-31T12:36:03;98605.03;;;25.30;100.00
11349;BME280;5729;43.570;27.826;2023-07-31T12:38:30;98595.41;;;25.26;100.00
11349;BME280;5729;43.570;27.826;2023-07-31T12:40:56;98597.56;;;25.22;100.00
11349;BME280;5729;43.570;27.826;2023-07-31T12:43:21;98586.13;;;25.14;100.00
11349;BME280;5729;43.570;27.826;2023-07-31T12:45:47;98600.16;;;25.25;100.00
11349;BME280;5729;43.570;27.826;2023-07-31T12:48:13;98604.00;;;25.28;100.00
11349;BME280;5729;43.570;27.826;2023-07-31T12:50:39;98585.31;;;25.23;100.00
11349;BME280;5729;43.570;27.826;2023-07-31T12:53:05;98599.22;;;25.28;100.00
11349;BME280;5729;43.570;27.826;2023-07-31T12:55:31;98592.81;;;25.22;100.00
11349;BME280;5729;43.570;27.826;2023-07-31T12:57:56;98591.69;;;25.29;100.00
11349;BME280;5729;43.570;27.826;2023-07-31T13:00:22;98585.66;;;25.40;100.00
11349;BME280;5729;43.570;27.826;2023-07-31T13:02:48;98585.34;;;25.47;100.00
11349;BME280;5729;43.570;27.826;2023-07-31T13:05:13;98584.41;;;25.50;100.00
11349;BME280;5729;43.570;27.826;2023-07-31T13:07:40;98591.84;;;25.58;100.00
11349;BME280;5729;43.570;27.826;2023-07-31T13:10:06;98593.38;;;25.59;100.00
11349;BME280;5729;43.570;27.826;2023-07-31T13:12:32;98592.41;;;25.72;100.00